sensor_id;sensor_type;location;lat;lon;timestamp;P1;durP1;ratioP1;P2;durP2;ratioP2
52031;SDS011;38044;45.148;39.604;2023-09-18T00:01:00;11.10;;;7.47;;
52031;SDS011;38044;45.148;39.604;2023-09-18T00:03:31;7.80;;;5.75;;
52031;SDS011;38044;45.148;39.604;2023-09-18T00:06:00;8.73;;;6.68;;
52031;SDS011;38044;45.148;39.604;2023-09-18T00:08:26;11.20;;;7.03;;
52031;SDS011;38044;45.148;39.604;2023-09-18T00:10:53;8.00;;;6.07;;
52031;SDS011;38044;45.148;39.604;2023-09-18T00:13:20;9.82;;;7.00;;
52031;SDS011;38044;45.148;39.604;2023-09-18T00:15:46;8.93;;;6.45;;
52031;SDS011;38044;45.148;39.604;2023-09-18T00:18:16;9.02;;;6.57;;
52031;SDS011;38044;45.148;39.604;2023-09-18T00:20:43;11.32;;;6.90;;
52031;SDS011;38044;45.148;39.604;2023-09-18T00:23:10;9.77;;;6.75;;
52031;SDS011;38044;45.148;39.604;2023-09-18T00:25:36;13.52;;;7.40;;
52031;SDS011;38044;45.148;39.604;2023-09-18T00:28:02;8.63;;;6.32;;
52031;SDS011;38044;45.148;39.604;2023-09-18T00:30:28;9.25;;;6.57;;
52031;SDS011;38044;45.148;39.604;2023-09-18T00:32:54;11.07;;;6.80;;
52031;SDS011;38044;45.148;39.604;2023-09-18T00:35:20;9.35;;;7.22;;
52031;SDS011;38044;45.148;39.604;2023-09-18T00:37:48;8.30;;;6.50;;
52031;SDS011;38044;45.148;39.604;2023-09-18T00:40:14;11.95;;;6.97;;
52031;SDS011;38044;45.148;39.604;2023-09-18T00:42:40;10.13;;;6.75;;
52031;SDS011;38044;45.148;39.604;2023-09-18T00:45:06;9.23;;;6.10;;
52031;SDS011;38044;45.148;39.604;2023-09-18T00:47:33;11.93;;;7.95;;
52031;SDS011;38044;45.148;39.604;2023-09-18T00:50:01;10.40;;;7.18;;
52031;SDS011;38044;45.148;39.604;2023-09-18T00:52:28;12.27;;;7.38;;
52031;SDS011;38044;45.148;39.604;2023-09-18T00:54:54;9.15;;;7.15;;
52031;SDS011;38044;45.148;39.604;2023-09-18T00:57:21;13.20;;;7.05;;
52031;SDS011;38044;45.148;39.604;2023-09-18T00:59:46;8.45;;;6.95;;
52031;SDS011;38044;45.148;39.604;2023-09-18T01:02:12;10.00;;;7.55;;
52031;SDS011;38044;45.148;39.604;2023-09-18T01:04:38;11.55;;;7.72;;
52031;SDS011;38044;45.148;39.604;2023-09-18T01:07:09;10.95;;;8.15;;
52031;SDS011;38044;45.148;39.604;2023-09-18T01:09:35;8.73;;;7.32;;
52031;SDS011;38044;45.148;39.604;2023-09-18T01:12:04;8.82;;;7.70;;
52031;SDS011;38044;45.148;39.604;2023-09-18T01:14:40;10.57;;;7.63;;
52031;SDS011;38044;45.148;39.604;2023-09-18T01:17:15;10.40;;;8.13;;
52031;SDS011;38044;45.148;39.604;2023-09-18T01:19:42;9.10;;;7.38;;
52031;SDS011;38044;45.148;39.604;2023-09-18T01:22:14;13.15;;;7.55;;
52031;SDS011;38044;45.148;39.604;2023-09-18T01:24:45;7.78;;;6.72;;
52031;SDS011;38044;45.148;39.604;2023-09-18T01:27:15;10.35;;;7.50;;
52031;SDS011;38044;45.148;39.604;2023-09-18T01:29:43;11.02;;;7.80;;
52031;SDS011;38044;45.148;39.604;2023-09-18T01:32:12;10.38;;;7.82;;
52031;SDS011;38044;45.148;39.604;2023-09-18T01:34:40;10.95;;;7.32;;
52031;SDS011;38044;45.148;39.604;2023-09-18T01:37:19;13.52;;;7.30;;
52031;SDS011;38044;45.148;39.604;2023-09-18T01:39:48;8.35;;;7.07;;
52031;SDS011;38044;45.148;39.604;2023-09-18T01:42:16;9.32;;;7.85;;
52031;SDS011;38044;45.148;39.604;2023-09-18T01:44:44;9.05;;;7.72;;
52031;SDS011;38044;45.148;39.604;2023-09-18T01:47:12;12.18;;;8.00;;
52031;SDS011;38044;45.148;39.604;2023-09-18T01:49:41;10.20;;;7.47;;
52031;SDS011;38044;45.148;39.604;2023-09-18T01:52:07;11.48;;;8.25;;
52031;SDS011;38044;45.148;39.604;2023-09-18T01:54:34;10.00;;;7.45;;
52031;SDS011;38044;45.148;39.604;2023-09-18T01:57:01;8.80;;;7.60;;
52031;SDS011;38044;45.148;39.604;2023-09-18T01:59:27;10.20;;;7.80;;
52031;SDS011;38044;45.148;39.604;2023-09-18T02:01:54;11.73;;;8.00;;
52031;SDS011;38044;45.148;39.604;2023-09-18T02:04:20;10.35;;;7.85;;
52031;SDS011;38044;45.148;39.604;2023-09-18T02:06:47;9.93;;;8.07;;
52031;SDS011;38044;45.148;39.604;2023-09-18T02:09:15;11.00;;;8.65;;
52031;SDS011;38044;45.148;39.604;2023-09-18T02:11:42;13.77;;;8.82;;
52031;SDS011;38044;45.148;39.604;2023-09-18T02:14:09;13.40;;;9.38;;
52031;SDS011;38044;45.148;39.604;2023-09-18T02:16:36;12.52;;;9.02;;
52031;SDS011;38044;45.148;39.604;2023-09-18T02:19:06;14.55;;;8.70;;
52031;SDS011;38044;45.148;39.604;2023-09-18T02:21:33;12.77;;;9.70;;
52031;SDS011;38044;45.148;39.604;2023-09-18T02:24:00;12.82;;;8.98;;
52031;SDS011;38044;45.148;39.604;2023-09-18T02:26:26;13.65;;;9.35;;
52031;SDS011;38044;45.148;39.604;2023-09-18T02:28:52;14.50;;;9.85;;
52031;SDS011;38044;45.148;39.604;2023-09-18T02:31:19;12.00;;;9.35;;
52031;SDS011;38044;45.148;39.604;2023-09-18T02:33:45;12.82;;;9.82;;
52031;SDS011;38044;45.148;39.604;2023-09-18T02:36:12;15.10;;;9.45;;
52031;SDS011;38044;45.148;39.604;2023-09-18T02:38:38;16.45;;;9.82;;
52031;SDS011;38044;45.148;39.604;2023-09-18T02:41:04;15.23;;;9.80;;
52031;SDS011;38044;45.148;39.604;2023-09-18T02:43:30;14.43;;;9.65;;
52031;SDS011;38044;45.148;39.604;2023-09-18T02:45:55;13.25;;;9.95;;
52031;SDS011;38044;45.148;39.604;2023-09-18T02:48:21;12.65;;;9.85;;
52031;SDS011;38044;45.148;39.604;2023-09-18T02:50:47;13.40;;;9.93;;
52031;SDS011;38044;45.148;39.604;2023-09-18T02:53:17;16.23;;;9.88;;
52031;SDS011;38044;45.148;39.604;2023-09-18T02:55:45;14.15;;;10.18;;
52031;SDS011;38044;45.148;39.604;2023-09-18T02:58:12;13.55;;;9.73;;
52031;SDS011;38044;45.148;39.604;2023-09-18T03:00:41;13.90;;;9.88;;
52031;SDS011;38044;45.148;39.604;2023-09-18T03:03:08;12.07;;;9.43;;
52031;SDS011;38044;45.148;39.604;2023-09-18T03:05:34;14.57;;;10.07;;
52031;SDS011;38044;45.148;39.604;2023-09-18T03:08:00;12.52;;;10.15;;
52031;SDS011;38044;45.148;39.604;2023-09-18T03:10:26;12.93;;;9.68;;
52031;SDS011;38044;45.148;39.604;2023-09-18T03:12:52;13.95;;;9.95;;
52031;SDS011;38044;45.148;39.604;2023-09-18T03:15:18;13.13;;;9.70;;
52031;SDS011;38044;45.148;39.604;2023-09-18T03:17:44;16.50;;;10.23;;
52031;SDS011;38044;45.148;39.604;2023-09-18T03:20:10;15.57;;;10.57;;
52031;SDS011;38044;45.148;39.604;2023-09-18T03:22:36;13.88;;;10.43;;
52031;SDS011;38044;45.148;39.604;2023-09-18T03:25:02;11.88;;;9.80;;
52031;SDS011;38044;45.148;39.604;2023-09-18T03:27:28;14.55;;;9.82;;
52031;SDS011;38044;45.148;39.604;2023-09-18T03:29:57;12.77;;;9.60;;
52031;SDS011;38044;45.148;39.604;2023-09-18T03:32:23;11.43;;;9.48;;
52031;SDS011;38044;45.148;39.604;2023-09-18T03:34:52;14.95;;;10.07;;
52031;SDS011;38044;45.148;39.604;2023-09-18T03:37:19;15.20;;;10.90;;
52031;SDS011;38044;45.148;39.604;2023-09-18T03:39:45;15.60;;;10.40;;
52031;SDS011;38044;45.148;39.604;2023-09-18T03:42:14;13.48;;;11.02;;
52031;SDS011;38044;45.148;39.604;2023-09-18T03:44:46;14.43;;;10.85;;
52031;SDS011;38044;45.148;39.604;2023-09-18T03:47:12;15.25;;;11.10;;
52031;SDS011;38044;45.148;39.604;2023-09-18T03:49:38;15.45;;;11.02;;
52031;SDS011;38044;45.148;39.604;2023-09-18T03:52:04;14.55;;;10.70;;
52031;SDS011;38044;45.148;39.604;2023-09-18T03:54:30;15.27;;;10.15;;
52031;SDS011;38044;45.148;39.604;2023-09-18T03:56:56;15.27;;;10.07;;
52031;SDS011;38044;45.148;39.604;2023-09-18T03:59:22;13.40;;;9.88;;
52031;SDS011;38044;45.148;39.604;2023-09-18T04:01:48;13.55;;;9.38;;
52031;SDS011;38044;45.148;39.604;2023-09-18T04:04:15;13.73;;;10.02;;
52031;SDS011;38044;45.148;39.604;2023-09-18T04:06:41;14.38;;;9.27;;
52031;SDS011;38044;45.148;39.604;2023-09-18T04:09:10;13.40;;;9.35;;
52031;SDS011;38044;45.148;39.604;2023-09-18T04:11:36;11.55;;;8.65;;
52031;SDS011;38044;45.148;39.604;2023-09-18T04:14:01;17.70;;;8.85;;
52031;SDS011;38044;45.148;39.604;2023-09-18T04:16:30;11.60;;;8.57;;
52031;SDS011;38044;45.148;39.604;2023-09-18T04:19:01;13.52;;;8.48;;
52031;SDS011;38044;45.148;39.604;2023-09-18T04:21:27;14.70;;;9.02;;
52031;SDS011;38044;45.148;39.604;2023-09-18T04:23:55;13.88;;;9.00;;
52031;SDS011;38044;45.148;39.604;2023-09-18T04:26:24;10.95;;;7.95;;
52031;SDS011;38044;45.148;39.604;2023-09-18T04:28:54;13.38;;;9.00;;
52031;SDS011;38044;45.148;39.604;2023-09-18T04:31:21;12.07;;;8.50;;
52031;SDS011;38044;45.148;39.604;2023-09-18T04:33:47;11.57;;;8.27;;
52031;SDS011;38044;45.148;39.604;2023-09-18T04:36:13;9.65;;;7.97;;
52031;SDS011;38044;45.148;39.604;2023-09-18T04:38:39;17.10;;;8.50;;
52031;SDS011;38044;45.148;39.604;2023-09-18T04:41:05;11.23;;;8.60;;
52031;SDS011;38044;45.148;39.604;2023-09-18T04:43:35;11.35;;;8.38;;
52031;SDS011;38044;45.148;39.604;2023-09-18T04:46:01;11.93;;;8.20;;
52031;SDS011;38044;45.148;39.604;2023-09-18T04:48:30;12.73;;;8.77;;
52031;SDS011;38044;45.148;39.604;2023-09-18T04:50:57;13.43;;;8.70;;
52031;SDS011;38044;45.148;39.604;2023-09-18T04:53:23;16.70;;;9.68;;
52031;SDS011;38044;45.148;39.604;2023-09-18T04:55:49;11.35;;;8.95;;
52031;SDS011;38044;45.148;39.604;2023-09-18T04:58:15;15.15;;;9.15;;
52031;SDS011;38044;45.148;39.604;2023-09-18T05:00:42;13.85;;;9.23;;
52031;SDS011;38044;45.148;39.604;2023-09-18T05:03:08;12.68;;;9.32;;
52031;SDS011;38044;45.148;39.604;2023-09-18T05:05:35;19.83;;;9.45;;
52031;SDS011;38044;45.148;39.604;2023-09-18T05:08:01;12.98;;;9.43;;
52031;SDS011;38044;45.148;39.604;2023-09-18T05:10:30;13.13;;;9.43;;
52031;SDS011;38044;45.148;39.604;2023-09-18T05:12:56;14.32;;;9.48;;
52031;SDS011;38044;45.148;39.604;2023-09-18T05:15:27;13.10;;;9.27;;
52031;SDS011;38044;45.148;39.604;2023-09-18T05:17:56;15.30;;;8.80;;
52031;SDS011;38044;45.148;39.604;2023-09-18T05:20:23;12.95;;;8.43;;
52031;SDS011;38044;45.148;39.604;2023-09-18T05:22:51;13.25;;;9.25;;
52031;SDS011;38044;45.148;39.604;2023-09-18T05:25:21;16.77;;;9.00;;
52031;SDS011;38044;45.148;39.604;2023-09-18T05:27:48;14.00;;;8.57;;
52031;SDS011;38044;45.148;39.604;2023-09-18T05:30:29;12.10;;;8.82;;
52031;SDS011;38044;45.148;39.604;2023-09-18T05:32:59;11.93;;;8.40;;
52031;SDS011;38044;45.148;39.604;2023-09-18T05:35:30;13.15;;;8.43;;
52031;SDS011;38044;45.148;39.604;2023-09-18T05:38:02;9.82;;;7.00;;
52031;SDS011;38044;45.148;39.604;2023-09-18T05:40:28;11.60;;;7.65;;
52031;SDS011;38044;45.148;39.604;2023-09-18T05:42:55;17.38;;;8.15;;
52031;SDS011;38044;45.148;39.604;2023-09-18T05:45:21;10.50;;;7.88;;
52031;SDS011;38044;45.148;39.604;2023-09-18T05:47:48;10.77;;;8.23;;
52031;SDS011;38044;45.148;39.604;2023-09-18T05:50:15;11.02;;;8.20;;
52031;SDS011;38044;45.148;39.604;2023-09-18T05:52:42;9.95;;;7.05;;
52031;SDS011;38044;45.148;39.604;2023-09-18T05:55:09;12.60;;;8.65;;
52031;SDS011;38044;45.148;39.604;2023-09-18T05:57:35;10.43;;;7.32;;
52031;SDS011;38044;45.148;39.604;2023-09-18T06:00:02;13.38;;;7.55;;
52031;SDS011;38044;45.148;39.604;2023-09-18T06:02:28;12.40;;;7.00;;
52031;SDS011;38044;45.148;39.604;2023-09-18T06:04:58;10.43;;;7.45;;
52031;SDS011;38044;45.148;39.604;2023-09-18T06:07:28;10.00;;;7.10;;
52031;SDS011;38044;45.148;39.604;2023-09-18T06:09:55;9.93;;;6.85;;
52031;SDS011;38044;45.148;39.604;2023-09-18T06:12:22;14.02;;;6.47;;
52031;SDS011;38044;45.148;39.604;2023-09-18T06:14:48;10.77;;;6.22;;
52031;SDS011;38044;45.148;39.604;2023-09-18T06:17:15;9.85;;;5.80;;
52031;SDS011;38044;45.148;39.604;2023-09-18T06:19:41;11.20;;;6.03;;
52031;SDS011;38044;45.148;39.604;2023-09-18T06:22:07;7.72;;;5.07;;
52031;SDS011;38044;45.148;39.604;2023-09-18T06:24:36;11.90;;;4.95;;
52031;SDS011;38044;45.148;39.604;2023-09-18T06:27:02;6.72;;;5.07;;
52031;SDS011;38044;45.148;39.604;2023-09-18T06:29:32;8.30;;;5.05;;
52031;SDS011;38044;45.148;39.604;2023-09-18T06:31:58;10.40;;;6.00;;
52031;SDS011;38044;45.148;39.604;2023-09-18T06:34:24;7.07;;;4.95;;
52031;SDS011;38044;45.148;39.604;2023-09-18T06:36:50;9.70;;;4.88;;
52031;SDS011;38044;45.148;39.604;2023-09-18T06:39:16;28.65;;;12.52;;
52031;SDS011;38044;45.148;39.604;2023-09-18T06:41:42;9.00;;;4.50;;
52031;SDS011;38044;45.148;39.604;2023-09-18T06:44:08;6.43;;;3.92;;
52031;SDS011;38044;45.148;39.604;2023-09-18T06:46:34;8.88;;;6.13;;
52031;SDS011;38044;45.148;39.604;2023-09-18T06:49:00;14.32;;;8.75;;
52031;SDS011;38044;45.148;39.604;2023-09-18T06:51:26;11.77;;;7.30;;
52031;SDS011;38044;45.148;39.604;2023-09-18T06:53:52;6.30;;;4.10;;
52031;SDS011;38044;45.148;39.604;2023-09-18T06:56:19;7.95;;;3.90;;
52031;SDS011;38044;45.148;39.604;2023-09-18T06:58:45;5.95;;;4.22;;
52031;SDS011;38044;45.148;39.604;2023-09-18T07:01:19;11.93;;;3.97;;
52031;SDS011;38044;45.148;39.604;2023-09-18T07:03:48;7.50;;;4.05;;
52031;SDS011;38044;45.148;39.604;2023-09-18T07:06:15;31.70;;;12.73;;
52031;SDS011;38044;45.148;39.604;2023-09-18T07:08:43;11.05;;;7.03;;
52031;SDS011;38044;45.148;39.604;2023-09-18T07:11:09;7.18;;;3.63;;
52031;SDS011;38044;45.148;39.604;2023-09-18T07:13:37;11.30;;;6.22;;
52031;SDS011;38044;45.148;39.604;2023-09-18T07:16:03;16.63;;;8.73;;
52031;SDS011;38044;45.148;39.604;2023-09-18T07:18:31;4.95;;;4.45;;
52031;SDS011;38044;45.148;39.604;2023-09-18T07:20:56;7.03;;;5.35;;
52031;SDS011;38044;45.148;39.604;2023-09-18T07:23:22;5.63;;;3.28;;
52031;SDS011;38044;45.148;39.604;2023-09-18T07:25:48;10.75;;;6.78;;
52031;SDS011;38044;45.148;39.604;2023-09-18T07:28:14;7.20;;;4.18;;
52031;SDS011;38044;45.148;39.604;2023-09-18T07:30:43;8.98;;;7.20;;
52031;SDS011;38044;45.148;39.604;2023-09-18T07:33:09;5.07;;;3.92;;
52031;SDS011;38044;45.148;39.604;2023-09-18T07:35:36;7.75;;;4.28;;
52031;SDS011;38044;45.148;39.604;2023-09-18T07:38:03;14.40;;;5.43;;
52031;SDS011;38044;45.148;39.604;2023-09-18T07:40:29;12.20;;;5.65;;
52031;SDS011;38044;45.148;39.604;2023-09-18T07:42:55;9.13;;;6.63;;
52031;SDS011;38044;45.148;39.604;2023-09-18T07:45:22;14.18;;;7.45;;
52031;SDS011;38044;45.148;39.604;2023-09-18T07:47:49;3.75;;;3.38;;
52031;SDS011;38044;45.148;39.604;2023-09-18T07:50:14;6.60;;;3.72;;
52031;SDS011;38044;45.148;39.604;2023-09-18T07:52:40;5.75;;;3.40;;
52031;SDS011;38044;45.148;39.604;2023-09-18T07:55:06;3.20;;;2.90;;
52031;SDS011;38044;45.148;39.604;2023-09-18T07:57:33;3.60;;;3.30;;
52031;SDS011;38044;45.148;39.604;2023-09-18T07:59:59;5.85;;;4.13;;
52031;SDS011;38044;45.148;39.604;2023-09-18T08:02:32;5.60;;;3.72;;
52031;SDS011;38044;45.148;39.604;2023-09-18T08:05:00;5.15;;;3.33;;
52031;SDS011;38044;45.148;39.604;2023-09-18T08:07:27;7.82;;;3.40;;
52031;SDS011;38044;45.148;39.604;2023-09-18T08:09:53;4.68;;;4.05;;
52031;SDS011;38044;45.148;39.604;2023-09-18T08:12:19;7.38;;;3.65;;
52031;SDS011;38044;45.148;39.604;2023-09-18T08:14:45;4.63;;;3.15;;
52031;SDS011;38044;45.148;39.604;2023-09-18T08:17:11;4.22;;;3.22;;
52031;SDS011;38044;45.148;39.604;2023-09-18T08:19:37;3.80;;;3.30;;
52031;SDS011;38044;45.148;39.604;2023-09-18T08:22:04;4.18;;;3.08;;
52031;SDS011;38044;45.148;39.604;2023-09-18T08:24:30;4.80;;;3.33;;
52031;SDS011;38044;45.148;39.604;2023-09-18T08:26:56;3.22;;;2.92;;
52031;SDS011;38044;45.148;39.604;2023-09-18T08:29:22;3.40;;;3.10;;
52031;SDS011;38044;45.148;39.604;2023-09-18T08:31:48;3.00;;;2.70;;
52031;SDS011;38044;45.148;39.604;2023-09-18T08:34:15;4.75;;;3.40;;
52031;SDS011;38044;45.148;39.604;2023-09-18T08:36:41;3.75;;;2.80;;
52031;SDS011;38044;45.148;39.604;2023-09-18T08:39:07;5.20;;;3.65;;
52031;SDS011;38044;45.148;39.604;2023-09-18T08:41:33;5.63;;;2.60;;
52031;SDS011;38044;45.148;39.604;2023-09-18T08:44:03;3.83;;;3.03;;
52031;SDS011;38044;45.148;39.604;2023-09-18T08:46:34;6.57;;;3.35;;
52031;SDS011;38044;45.148;39.604;2023-09-18T08:49:00;6.70;;;2.90;;
52031;SDS011;38044;45.148;39.604;2023-09-18T08:51:26;10.20;;;3.63;;
52031;SDS011;38044;45.148;39.604;2023-09-18T08:53:54;4.18;;;2.60;;
52031;SDS011;38044;45.148;39.604;2023-09-18T08:56:21;3.88;;;3.05;;
52031;SDS011;38044;45.148;39.604;2023-09-18T08:58:48;2.78;;;2.38;;
52031;SDS011;38044;45.148;39.604;2023-09-18T09:01:14;3.30;;;2.70;;
52031;SDS011;38044;45.148;39.604;2023-09-18T09:03:40;3.40;;;2.92;;
52031;SDS011;38044;45.148;39.604;2023-09-18T09:06:08;3.75;;;2.53;;
52031;SDS011;38044;45.148;39.604;2023-09-18T09:08:35;5.88;;;2.92;;
52031;SDS011;38044;45.148;39.604;2023-09-18T09:11:03;8.05;;;2.92;;
52031;SDS011;38044;45.148;39.604;2023-09-18T09:13:29;3.15;;;2.85;;
52031;SDS011;38044;45.148;39.604;2023-09-18T09:15:56;3.70;;;2.92;;
52031;SDS011;38044;45.148;39.604;2023-09-18T09:18:24;3.33;;;2.42;;
52031;SDS011;38044;45.148;39.604;2023-09-18T09:20:55;4.05;;;3.05;;
52031;SDS011;38044;45.148;39.604;2023-09-18T09:23:26;4.47;;;2.72;;
52031;SDS011;38044;45.148;39.604;2023-09-18T09:25:54;4.47;;;2.70;;
52031;SDS011;38044;45.148;39.604;2023-09-18T09:28:37;5.13;;;2.75;;
52031;SDS011;38044;45.148;39.604;2023-09-18T09:31:02;6.88;;;2.75;;
52031;SDS011;38044;45.148;39.604;2023-09-18T09:33:29;4.80;;;2.67;;
52031;SDS011;38044;45.148;39.604;2023-09-18T09:35:56;4.78;;;2.70;;
52031;SDS011;38044;45.148;39.604;2023-09-18T09:38:32;4.38;;;2.53;;
52031;SDS011;38044;45.148;39.604;2023-09-18T09:41:02;2.88;;;2.60;;
52031;SDS011;38044;45.148;39.604;2023-09-18T09:43:32;3.22;;;2.05;;
52031;SDS011;38044;45.148;39.604;2023-09-18T09:46:01;3.10;;;2.70;;
52031;SDS011;38044;45.148;39.604;2023-09-18T09:48:28;6.57;;;3.22;;
52031;SDS011;38044;45.148;39.604;2023-09-18T09:50:59;4.18;;;2.50;;
52031;SDS011;38044;45.148;39.604;2023-09-18T09:53:42;3.90;;;2.35;;
52031;SDS011;38044;45.148;39.604;2023-09-18T09:56:13;5.25;;;3.30;;
52031;SDS011;38044;45.148;39.604;2023-09-18T09:58:39;3.67;;;2.85;;
52031;SDS011;38044;45.148;39.604;2023-09-18T10:01:09;9.48;;;2.90;;
52031;SDS011;38044;45.148;39.604;2023-09-18T10:03:43;5.65;;;2.70;;
52031;SDS011;38044;45.148;39.604;2023-09-18T10:06:09;3.33;;;2.72;;
52031;SDS011;38044;45.148;39.604;2023-09-18T10:08:38;3.22;;;2.88;;
52031;SDS011;38044;45.148;39.604;2023-09-18T10:11:06;3.40;;;2.90;;
52031;SDS011;38044;45.148;39.604;2023-09-18T10:13:40;7.57;;;3.42;;
52031;SDS011;38044;45.148;39.604;2023-09-18T10:16:11;4.57;;;3.22;;
52031;SDS011;38044;45.148;39.604;2023-09-18T10:24:24;4.63;;;3.72;;
52031;SDS011;38044;45.148;39.604;2023-09-18T10:27:01;5.00;;;2.83;;
52031;SDS011;38044;45.148;39.604;2023-09-18T10:29:30;4.68;;;3.10;;
52031;SDS011;38044;45.148;39.604;2023-09-18T10:31:58;5.43;;;2.85;;
52031;SDS011;38044;45.148;39.604;2023-09-18T10:34:24;3.70;;;3.05;;
52031;SDS011;38044;45.148;39.604;2023-09-18T10:36:51;6.28;;;3.13;;
52031;SDS011;38044;45.148;39.604;2023-09-18T10:39:18;3.38;;;2.75;;
52031;SDS011;38044;45.148;39.604;2023-09-18T10:41:52;4.28;;;2.80;;
52031;SDS011;38044;45.148;39.604;2023-09-18T10:44:20;6.45;;;3.13;;
52031;SDS011;38044;45.148;39.604;2023-09-18T10:46:50;6.57;;;3.22;;
52031;SDS011;38044;45.148;39.604;2023-09-18T10:49:18;4.80;;;3.15;;
52031;SDS011;38044;45.148;39.604;2023-09-18T10:51:48;5.20;;;2.92;;
52031;SDS011;38044;45.148;39.604;2023-09-18T10:54:22;12.65;;;3.40;;
52031;SDS011;38044;45.148;39.604;2023-09-18T10:56:49;3.35;;;3.00;;
52031;SDS011;38044;45.148;39.604;2023-09-18T10:59:15;6.25;;;2.90;;
52031;SDS011;38044;45.148;39.604;2023-09-18T11:01:42;4.25;;;2.90;;
52031;SDS011;38044;45.148;39.604;2023-09-18T11:04:08;5.82;;;3.17;;
52031;SDS011;38044;45.148;39.604;2023-09-18T11:11:53;4.10;;;3.28;;
52031;SDS011;38044;45.148;39.604;2023-09-18T11:14:48;6.53;;;2.90;;
52031;SDS011;38044;45.148;39.604;2023-09-18T11:22:30;9.37;;;3.30;;
52031;SDS011;38044;45.148;39.604;2023-09-18T11:27:55;4.72;;;3.40;;
52031;SDS011;38044;45.148;39.604;2023-09-18T11:30:21;7.10;;;4.00;;
52031;SDS011;38044;45.148;39.604;2023-09-18T11:32:49;5.82;;;3.47;;
52031;SDS011;38044;45.148;39.604;2023-09-18T11:35:15;3.92;;;3.03;;
52031;SDS011;38044;45.148;39.604;2023-09-18T11:37:45;3.72;;;2.90;;
52031;SDS011;38044;45.148;39.604;2023-09-18T11:40:29;5.55;;;3.10;;
52031;SDS011;38044;45.148;39.604;2023-09-18T11:46:00;5.22;;;2.90;;
52031;SDS011;38044;45.148;39.604;2023-09-18T11:48:29;5.03;;;3.03;;
52031;SDS011;38044;45.148;39.604;2023-09-18T11:50:59;8.65;;;3.10;;
52031;SDS011;38044;45.148;39.604;2023-09-18T11:53:28;6.00;;;2.97;;
52031;SDS011;38044;45.148;39.604;2023-09-18T11:55:59;7.70;;;2.63;;
52031;SDS011;38044;45.148;39.604;2023-09-18T11:58:25;4.28;;;2.47;;
52031;SDS011;38044;45.148;39.604;2023-09-18T12:00:51;3.83;;;2.75;;
52031;SDS011;38044;45.148;39.604;2023-09-18T12:03:22;4.10;;;2.60;;
52031;SDS011;38044;45.148;39.604;2023-09-18T12:05:56;3.20;;;2.90;;
52031;SDS011;38044;45.148;39.604;2023-09-18T12:10:53;3.25;;;2.90;;
52031;SDS011;38044;45.148;39.604;2023-09-18T12:13:20;4.25;;;2.70;;
52031;SDS011;38044;45.148;39.604;2023-09-18T12:15:47;4.57;;;2.70;;
52031;SDS011;38044;45.148;39.604;2023-09-18T12:18:14;5.65;;;3.17;;
52031;SDS011;38044;45.148;39.604;2023-09-18T12:20:45;5.32;;;2.28;;
52031;SDS011;38044;45.148;39.604;2023-09-18T12:23:11;4.97;;;2.90;;
52031;SDS011;38044;45.148;39.604;2023-09-18T12:25:38;3.38;;;3.05;;
52031;SDS011;38044;45.148;39.604;2023-09-18T12:28:05;3.70;;;2.75;;
52031;SDS011;38044;45.148;39.604;2023-09-18T12:30:32;7.03;;;2.97;;
52031;SDS011;38044;45.148;39.604;2023-09-18T12:32:59;10.85;;;5.80;;
52031;SDS011;38044;45.148;39.604;2023-09-18T12:35:25;4.88;;;3.45;;
52031;SDS011;38044;45.148;39.604;2023-09-18T12:37:58;5.07;;;3.10;;
52031;SDS011;38044;45.148;39.604;2023-09-18T12:40:29;4.97;;;2.83;;
52031;SDS011;38044;45.148;39.604;2023-09-18T12:42:58;5.15;;;2.72;;
52031;SDS011;38044;45.148;39.604;2023-09-18T12:45:25;4.72;;;2.50;;
52031;SDS011;38044;45.148;39.604;2023-09-18T12:47:53;6.75;;;2.80;;
52031;SDS011;38044;45.148;39.604;2023-09-18T12:50:21;5.00;;;2.70;;
52031;SDS011;38044;45.148;39.604;2023-09-18T12:52:46;2.85;;;2.50;;
52031;SDS011;38044;45.148;39.604;2023-09-18T12:55:22;5.13;;;2.60;;
52031;SDS011;38044;45.148;39.604;2023-09-18T12:57:55;38.50;;;4.70;;
52031;SDS011;38044;45.148;39.604;2023-09-18T13:00:21;3.60;;;2.38;;
52031;SDS011;38044;45.148;39.604;2023-09-18T13:02:48;5.90;;;2.30;;
52031;SDS011;38044;45.148;39.604;2023-09-18T13:05:21;2.97;;;2.35;;
52031;SDS011;38044;45.148;39.604;2023-09-18T13:07:51;4.95;;;2.30;;
52031;SDS011;38044;45.148;39.604;2023-09-18T13:10:21;3.35;;;2.00;;
52031;SDS011;38044;45.148;39.604;2023-09-18T13:12:51;2.50;;;2.20;;
52031;SDS011;38044;45.148;39.604;2023-09-18T13:15:33;4.05;;;2.47;;
52031;SDS011;38044;45.148;39.604;2023-09-18T13:18:08;2.50;;;2.10;;
52031;SDS011;38044;45.148;39.604;2023-09-18T13:20:36;5.22;;;2.25;;
52031;SDS011;38044;45.148;39.604;2023-09-18T13:23:02;3.30;;;2.55;;
52031;SDS011;38044;45.148;39.604;2023-09-18T13:25:32;7.10;;;2.50;;
52031;SDS011;38044;45.148;39.604;2023-09-18T13:28:00;10.70;;;6.15;;
52031;SDS011;38044;45.148;39.604;2023-09-18T13:30:27;5.70;;;2.40;;
52031;SDS011;38044;45.148;39.604;2023-09-18T13:33:01;3.28;;;2.17;;
52031;SDS011;38044;45.148;39.604;2023-09-18T13:35:29;5.22;;;2.67;;
52031;SDS011;38044;45.148;39.604;2023-09-18T13:37:55;3.03;;;2.28;;
52031;SDS011;38044;45.148;39.604;2023-09-18T13:40:21;2.45;;;2.03;;
52031;SDS011;38044;45.148;39.604;2023-09-18T13:42:47;5.28;;;2.35;;
52031;SDS011;38044;45.148;39.604;2023-09-18T13:45:14;3.97;;;2.60;;
52031;SDS011;38044;45.148;39.604;2023-09-18T13:47:43;7.55;;;2.60;;
52031;SDS011;38044;45.148;39.604;2023-09-18T13:50:09;3.33;;;2.60;;
52031;SDS011;38044;45.148;39.604;2023-09-18T13:52:36;2.50;;;2.30;;
52031;SDS011;38044;45.148;39.604;2023-09-18T13:55:02;5.80;;;2.47;;
52031;SDS011;38044;45.148;39.604;2023-09-18T13:57:33;3.25;;;2.40;;
52031;SDS011;38044;45.148;39.604;2023-09-18T14:00:03;3.97;;;2.00;;
52031;SDS011;38044;45.148;39.604;2023-09-18T14:02:35;2.95;;;2.20;;
52031;SDS011;38044;45.148;39.604;2023-09-18T14:05:02;2.83;;;2.22;;
52031;SDS011;38044;45.148;39.604;2023-09-18T14:07:29;6.30;;;2.60;;
52031;SDS011;38044;45.148;39.604;2023-09-18T14:09:55;4.55;;;2.78;;
52031;SDS011;38044;45.148;39.604;2023-09-18T14:12:21;5.75;;;2.20;;
52031;SDS011;38044;45.148;39.604;2023-09-18T14:14:47;3.47;;;2.33;;
52031;SDS011;38044;45.148;39.604;2023-09-18T14:17:13;4.05;;;2.45;;
52031;SDS011;38044;45.148;39.604;2023-09-18T14:19:41;3.50;;;2.00;;
52031;SDS011;38044;45.148;39.604;2023-09-18T14:22:07;6.18;;;2.60;;
52031;SDS011;38044;45.148;39.604;2023-09-18T14:24:33;3.65;;;2.20;;
52031;SDS011;38044;45.148;39.604;2023-09-18T14:27:03;2.88;;;2.00;;
52031;SDS011;38044;45.148;39.604;2023-09-18T14:29:29;9.57;;;2.85;;
52031;SDS011;38044;45.148;39.604;2023-09-18T14:32:01;5.72;;;2.53;;
52031;SDS011;38044;45.148;39.604;2023-09-18T14:34:29;3.90;;;2.10;;
52031;SDS011;38044;45.148;39.604;2023-09-18T14:36:56;7.32;;;2.53;;
52031;SDS011;38044;45.148;39.604;2023-09-18T14:39:22;6.90;;;2.42;;
52031;SDS011;38044;45.148;39.604;2023-09-18T14:41:48;3.45;;;2.00;;
52031;SDS011;38044;45.148;39.604;2023-09-18T14:44:14;3.80;;;2.28;;
52031;SDS011;38044;45.148;39.604;2023-09-18T14:46:40;6.32;;;2.30;;
52031;SDS011;38044;45.148;39.604;2023-09-18T14:49:06;5.05;;;2.60;;
52031;SDS011;38044;45.148;39.604;2023-09-18T14:51:34;3.33;;;2.60;;
52031;SDS011;38044;45.148;39.604;2023-09-18T14:54:00;3.22;;;2.08;;
52031;SDS011;38044;45.148;39.604;2023-09-18T14:56:27;6.25;;;2.47;;